sensor_id;sensor_type;location;lat;lon;timestamp;temperature;humidity
22769;DHT22;13001;51.968;5.918;2024-03-29T00:01:04;10.30;85.40
22769;DHT22;13001;51.968;5.918;2024-03-29T00:03:31;10.20;85.40
22769;DHT22;13001;51.968;5.918;2024-03-29T00:06:00;10.20;85.50
22769;DHT22;13001;51.968;5.918;2024-03-29T00:08:27;10.20;85.70
22769;DHT22;13001;51.968;5.918;2024-03-29T00:10:55;10.20;85.90
22769;DHT22;13001;51.968;5.918;2024-03-29T00:13:22;10.10;86.00
22769;DHT22;13001;51.968;5.918;2024-03-29T00:15:50;10.10;86.00
22769;DHT22;13001;51.968;5.918;2024-03-29T00:18:19;10.20;86.10
22769;DHT22;13001;51.968;5.918;2024-03-29T00:20:49;10.10;86.20
22769;DHT22;13001;51.968;5.918;2024-03-29T00:23:17;10.10;87.20
22769;DHT22;13001;51.968;5.918;2024-03-29T00:25:44;10.10;86.50
22769;DHT22;13001;51.968;5.918;2024-03-29T00:28:12;10.10;86.60
22769;DHT22;13001;51.968;5.918;2024-03-29T00:30:39;10.10;86.60
22769;DHT22;13001;51.968;5.918;2024-03-29T00:33:07;10.10;86.50
22769;DHT22;13001;51.968;5.918;2024-03-29T00:35:34;10.10;86.40
22769;DHT22;13001;51.968;5.918;2024-03-29T00:38:02;10.10;86.40
22769;DHT22;13001;51.968;5.918;2024-03-29T00:40:29;10.10;86.30
22769;DHT22;13001;51.968;5.918;2024-03-29T00:42:57;10.10;86.20
22769;DHT22;13001;51.968;5.918;2024-03-29T00:45:24;10.20;86.10
22769;DHT22;13001;51.968;5.918;2024-03-29T00:47:52;10.20;86.00
22769;DHT22;13001;51.968;5.918;2024-03-29T00:50:19;10.20;86.10
22769;DHT22;13001;51.968;5.918;2024-03-29T00:52:47;10.20;85.90
22769;DHT22;13001;51.968;5.918;2024-03-29T00:55:14;10.30;85.60
22769;DHT22;13001;51.968;5.918;2024-03-29T00:57:44;10.30;85.40
22769;DHT22;13001;51.968;5.918;2024-03-29T01:00:13;10.30;85.10
22769;DHT22;13001;51.968;5.918;2024-03-29T01:02:41;10.30;85.10
22769;DHT22;13001;51.968;5.918;2024-03-29T01:05:10;10.30;85.00
22769;DHT22;13001;51.968;5.918;2024-03-29T01:07:41;10.40;84.80
22769;DHT22;13001;51.968;5.918;2024-03-29T01:10:09;10.40;84.70
22769;DHT22;13001;51.968;5.918;2024-03-29T01:12:37;10.40;84.60
22769;DHT22;13001;51.968;5.918;2024-03-29T01:15:06;10.40;84.60
22769;DHT22;13001;51.968;5.918;2024-03-29T01:17:33;10.40;84.60
22769;DHT22;13001;51.968;5.918;2024-03-29T01:20:03;10.40;84.50
22769;DHT22;13001;51.968;5.918;2024-03-29T01:22:30;10.40;84.60
22769;DHT22;13001;51.968;5.918;2024-03-29T01:24:58;10.40;84.70
22769;DHT22;13001;51.968;5.918;2024-03-29T01:27:25;10.40;84.60
22769;DHT22;13001;51.968;5.918;2024-03-29T01:29:53;10.30;84.60
22769;DHT22;13001;51.968;5.918;2024-03-29T01:32:20;10.30;84.60
22769;DHT22;13001;51.968;5.918;2024-03-29T01:34:48;10.30;84.60
22769;DHT22;13001;51.968;5.918;2024-03-29T01:37:15;10.30;84.60
22769;DHT22;13001;51.968;5.918;2024-03-29T01:39:43;10.30;84.50
22769;DHT22;13001;51.968;5.918;2024-03-29T01:42:10;10.30;84.50
22769;DHT22;13001;51.968;5.918;2024-03-29T01:44:38;10.30;84.60
22769;DHT22;13001;51.968;5.918;2024-03-29T01:47:05;10.30;84.60
22769;DHT22;13001;51.968;5.918;2024-03-29T01:49:33;10.20;84.70
22769;DHT22;13001;51.968;5.918;2024-03-29T01:52:03;10.20;85.00
22769;DHT22;13001;51.968;5.918;2024-03-29T01:54:31;10.20;85.10
22769;DHT22;13001;51.968;5.918;2024-03-29T01:56:59;10.10;85.30
22769;DHT22;13001;51.968;5.918;2024-03-29T01:59:26;10.10;85.70
22769;DHT22;13001;51.968;5.918;2024-03-29T02:01:55;10.10;85.90
22769;DHT22;13001;51.968;5.918;2024-03-29T02:04:24;10.00;86.20
22769;DHT22;13001;51.968;5.918;2024-03-29T02:06:51;10.00;86.40
22769;DHT22;13001;51.968;5.918;2024-03-29T02:09:19;10.00;86.20
22769;DHT22;13001;51.968;5.918;2024-03-29T02:11:47;9.90;87.00
22769;DHT22;13001;51.968;5.918;2024-03-29T02:14:14;9.80;87.10
22769;DHT22;13001;51.968;5.918;2024-03-29T02:16:42;9.80;87.40
22769;DHT22;13001;51.968;5.918;2024-03-29T02:19:09;9.80;87.40
22769;DHT22;13001;51.968;5.918;2024-03-29T02:21:40;9.80;87.60
22769;DHT22;13001;51.968;5.918;2024-03-29T02:24:07;9.70;87.70
22769;DHT22;13001;51.968;5.918;2024-03-29T02:26:35;9.80;88.60
22769;DHT22;13001;51.968;5.918;2024-03-29T02:29:04;9.80;87.90
22769;DHT22;13001;51.968;5.918;2024-03-29T02:31:32;9.80;87.90
22769;DHT22;13001;51.968;5.918;2024-03-29T02:33:59;9.80;87.90
22769;DHT22;13001;51.968;5.918;2024-03-29T02:36:27;9.80;87.70
22769;DHT22;13001;51.968;5.918;2024-03-29T02:38:54;9.90;87.70
22769;DHT22;13001;51.968;5.918;2024-03-29T02:41:22;9.90;87.40
22769;DHT22;13001;51.968;5.918;2024-03-29T02:43:50;10.00;87.10
22769;DHT22;13001;51.968;5.918;2024-03-29T02:46:17;10.00;86.80
22769;DHT22;13001;51.968;5.918;2024-03-29T02:48:45;10.10;86.40
22769;DHT22;13001;51.968;5.918;2024-03-29T02:51:12;10.20;86.00
22769;DHT22;13001;51.968;5.918;2024-03-29T02:53:40;10.30;85.60
22769;DHT22;13001;51.968;5.918;2024-03-29T02:56:07;10.40;85.20
22769;DHT22;13001;51.968;5.918;2024-03-29T02:58:35;10.40;84.90
22769;DHT22;13001;51.968;5.918;2024-03-29T03:01:08;10.50;85.20
22769;DHT22;13001;51.968;5.918;2024-03-29T03:03:36;10.50;84.80
22769;DHT22;13001;51.968;5.918;2024-03-29T03:06:04;10.50;84.70
22769;DHT22;13001;51.968;5.918;2024-03-29T03:08:31;10.50;84.90
22769;DHT22;13001;51.968;5.918;2024-03-29T03:11:17;10.50;85.20
22769;DHT22;13001;51.968;5.918;2024-03-29T03:13:44;10.50;85.40
22769;DHT22;13001;51.968;5.918;2024-03-29T03:16:12;10.50;85.60
22769;DHT22;13001;51.968;5.918;2024-03-29T03:18:40;10.40;85.80
22769;DHT22;13001;51.968;5.918;2024-03-29T03:21:08;10.40;85.90
22769;DHT22;13001;51.968;5.918;2024-03-29T03:23:35;10.40;86.10
22769;DHT22;13001;51.968;5.918;2024-03-29T03:26:03;10.40;86.20
22769;DHT22;13001;51.968;5.918;2024-03-29T03:28:31;10.40;86.40
22769;DHT22;13001;51.968;5.918;2024-03-29T03:30:59;10.30;86.50
22769;DHT22;13001;51.968;5.918;2024-03-29T03:33:26;10.30;86.50
22769;DHT22;13001;51.968;5.918;2024-03-29T03:35:54;10.30;86.70
22769;DHT22;13001;51.968;5.918;2024-03-29T03:38:21;10.30;86.80
22769;DHT22;13001;51.968;5.918;2024-03-29T03:40:49;10.30;86.80
22769;DHT22;13001;51.968;5.918;2024-03-29T03:43:16;10.40;86.90
22769;DHT22;13001;51.968;5.918;2024-03-29T03:45:44;10.40;86.90
22769;DHT22;13001;51.968;5.918;2024-03-29T03:48:11;10.40;86.90
22769;DHT22;13001;51.968;5.918;2024-03-29T03:50:39;10.50;87.10
22769;DHT22;13001;51.968;5.918;2024-03-29T03:53:08;10.50;87.10
22769;DHT22;13001;51.968;5.918;2024-03-29T03:55:38;10.50;87.30
22769;DHT22;13001;51.968;5.918;2024-03-29T03:58:05;10.60;87.90
22769;DHT22;13001;51.968;5.918;2024-03-29T04:00:33;10.60;88.60
22769;DHT22;13001;51.968;5.918;2024-03-29T04:03:01;10.60;89.30
22769;DHT22;13001;51.968;5.918;2024-03-29T04:05:30;10.60;89.60
22769;DHT22;13001;51.968;5.918;2024-03-29T04:07:58;10.60;90.10
22769;DHT22;13001;51.968;5.918;2024-03-29T04:10:26;10.50;90.10
22769;DHT22;13001;51.968;5.918;2024-03-29T04:12:54;10.50;90.40
22769;DHT22;13001;51.968;5.918;2024-03-29T04:15:21;10.50;90.70
22769;DHT22;13001;51.968;5.918;2024-03-29T04:17:49;10.40;90.90
22769;DHT22;13001;51.968;5.918;2024-03-29T04:20:16;10.40;91.10
22769;DHT22;13001;51.968;5.918;2024-03-29T04:22:44;10.40;91.40
22769;DHT22;13001;51.968;5.918;2024-03-29T04:25:12;10.30;91.60
22769;DHT22;13001;51.968;5.918;2024-03-29T04:27:41;10.30;91.90
22769;DHT22;13001;51.968;5.918;2024-03-29T04:30:08;10.20;92.00
22769;DHT22;13001;51.968;5.918;2024-03-29T04:32:36;10.20;92.20
22769;DHT22;13001;51.968;5.918;2024-03-29T04:35:04;10.20;92.40
22769;DHT22;13001;51.968;5.918;2024-03-29T04:37:32;10.20;92.60
22769;DHT22;13001;51.968;5.918;2024-03-29T04:39:59;10.20;92.50
22769;DHT22;13001;51.968;5.918;2024-03-29T04:42:27;10.10;92.80
22769;DHT22;13001;51.968;5.918;2024-03-29T04:44:54;10.10;93.00
22769;DHT22;13001;51.968;5.918;2024-03-29T04:47:22;10.10;93.20
22769;DHT22;13001;51.968;5.918;2024-03-29T04:49:49;10.10;93.30
22769;DHT22;13001;51.968;5.918;2024-03-29T04:52:17;10.10;93.50
22769;DHT22;13001;51.968;5.918;2024-03-29T04:54:44;10.10;93.60
22769;DHT22;13001;51.968;5.918;2024-03-29T04:57:12;10.10;93.70
22769;DHT22;13001;51.968;5.918;2024-03-29T04:59:39;10.10;93.80
22769;DHT22;13001;51.968;5.918;2024-03-29T05:02:07;10.10;94.00
22769;DHT22;13001;51.968;5.918;2024-03-29T05:04:34;10.10;94.10
22769;DHT22;13001;51.968;5.918;2024-03-29T05:07:02;10.00;94.20
22769;DHT22;13001;51.968;5.918;2024-03-29T05:09:31;10.00;94.30
22769;DHT22;13001;51.968;5.918;2024-03-29T05:11:58;10.00;94.60
22769;DHT22;13001;51.968;5.918;2024-03-29T05:14:26;10.00;94.70
22769;DHT22;13001;51.968;5.918;2024-03-29T05:16:53;9.90;94.90
22769;DHT22;13001;51.968;5.918;2024-03-29T05:19:21;9.90;95.10
22769;DHT22;13001;51.968;5.918;2024-03-29T05:21:48;9.90;95.30
22769;DHT22;13001;51.968;5.918;2024-03-29T05:24:16;9.80;95.50
22769;DHT22;13001;51.968;5.918;2024-03-29T05:26:44;9.80;95.60
22769;DHT22;13001;51.968;5.918;2024-03-29T05:29:11;9.70;95.70
22769;DHT22;13001;51.968;5.918;2024-03-29T05:31:39;9.70;95.90
22769;DHT22;13001;51.968;5.918;2024-03-29T05:34:07;9.60;96.10
22769;DHT22;13001;51.968;5.918;2024-03-29T05:36:35;9.60;96.30
22769;DHT22;13001;51.968;5.918;2024-03-29T05:39:03;9.60;96.50
22769;DHT22;13001;51.968;5.918;2024-03-29T05:41:30;9.50;96.60
22769;DHT22;13001;51.968;5.918;2024-03-29T05:43:58;9.60;96.80
22769;DHT22;13001;51.968;5.918;2024-03-29T05:46:26;9.50;96.90
22769;DHT22;13001;51.968;5.918;2024-03-29T05:48:53;9.50;97.10
22769;DHT22;13001;51.968;5.918;2024-03-29T05:51:21;9.60;97.30
22769;DHT22;13001;51.968;5.918;2024-03-29T05:53:48;9.60;97.50
22769;DHT22;13001;51.968;5.918;2024-03-29T05:56:16;9.60;97.60
22769;DHT22;13001;51.968;5.918;2024-03-29T05:58:44;9.60;97.70
22769;DHT22;13001;51.968;5.918;2024-03-29T06:01:11;9.60;97.80
22769;DHT22;13001;51.968;5.918;2024-03-29T06:03:39;9.60;98.00
22769;DHT22;13001;51.968;5.918;2024-03-29T06:06:06;9.60;98.20
22769;DHT22;13001;51.968;5.918;2024-03-29T06:08:36;9.70;98.30
22769;DHT22;13001;51.968;5.918;2024-03-29T06:11:04;9.70;98.30
22769;DHT22;13001;51.968;5.918;2024-03-29T06:13:33;9.70;98.40
22769;DHT22;13001;51.968;5.918;2024-03-29T06:16:25;9.70;98.50
22769;DHT22;13001;51.968;5.918;2024-03-29T06:19:07;9.70;99.00
22769;DHT22;13001;51.968;5.918;2024-03-29T06:21:34;9.70;99.00
22769;DHT22;13001;51.968;5.918;2024-03-29T06:24:10;9.70;99.30
22769;DHT22;13001;51.968;5.918;2024-03-29T06:26:40;9.80;99.40
22769;DHT22;13001;51.968;5.918;2024-03-29T06:29:08;9.80;99.40
22769;DHT22;13001;51.968;5.918;2024-03-29T06:31:36;9.80;99.60
22769;DHT22;13001;51.968;5.918;2024-03-29T06:34:04;9.90;99.60
22769;DHT22;13001;51.968;5.918;2024-03-29T06:36:32;9.90;99.60
22769;DHT22;13001;51.968;5.918;2024-03-29T06:39:01;9.90;99.60
22769;DHT22;13001;51.968;5.918;2024-03-29T06:41:30;9.80;99.60
22769;DHT22;13001;51.968;5.918;2024-03-29T06:43:57;9.70;99.70
22769;DHT22;13001;51.968;5.918;2024-03-29T06:46:25;9.70;99.90
22769;DHT22;13001;51.968;5.918;2024-03-29T06:48:52;9.60;99.90
22769;DHT22;13001;51.968;5.918;2024-03-29T06:51:20;9.60;99.90
22769;DHT22;13001;51.968;5.918;2024-03-29T06:53:47;9.50;99.90
22769;DHT22;13001;51.968;5.918;2024-03-29T06:56:15;9.50;99.90
22769;DHT22;13001;51.968;5.918;2024-03-29T06:58:42;9.50;99.90
22769;DHT22;13001;51.968;5.918;2024-03-29T07:01:10;9.50;99.90
22769;DHT22;13001;51.968;5.918;2024-03-29T07:03:37;9.50;99.90
22769;DHT22;13001;51.968;5.918;2024-03-29T07:06:05;9.50;99.90
22769;DHT22;13001;51.968;5.918;2024-03-29T07:08:33;9.50;99.90
22769;DHT22;13001;51.968;5.918;2024-03-29T07:11:02;9.50;99.90
22769;DHT22;13001;51.968;5.918;2024-03-29T07:13:30;9.50;99.90
22769;DHT22;13001;51.968;5.918;2024-03-29T07:15:59;9.60;99.90
22769;DHT22;13001;51.968;5.918;2024-03-29T07:18:27;9.60;99.90
22769;DHT22;13001;51.968;5.918;2024-03-29T07:20:55;9.60;99.90
22769;DHT22;13001;51.968;5.918;2024-03-29T07:23:22;9.60;99.90
22769;DHT22;13001;51.968;5.918;2024-03-29T07:26:00;9.70;99.90
22769;DHT22;13001;51.968;5.918;2024-03-29T07:28:28;9.80;99.90
22769;DHT22;13001;51.968;5.918;2024-03-29T07:30:56;9.80;99.90
22769;DHT22;13001;51.968;5.918;2024-03-29T07:33:25;9.80;99.90
22769;DHT22;13001;51.968;5.918;2024-03-29T07:35:53;9.90;99.90
22769;DHT22;13001;51.968;5.918;2024-03-29T07:38:21;9.90;99.90
22769;DHT22;13001;51.968;5.918;2024-03-29T07:40:50;10.00;99.90
22769;DHT22;13001;51.968;5.918;2024-03-29T07:43:18;10.10;99.90
22769;DHT22;13001;51.968;5.918;2024-03-29T07:45:46;10.20;99.90
22769;DHT22;13001;51.968;5.918;2024-03-29T07:48:19;10.20;99.90
22769;DHT22;13001;51.968;5.918;2024-03-29T07:50:45;10.30;99.90
22769;DHT22;13001;51.968;5.918;2024-03-29T07:53:13;10.30;99.90
22769;DHT22;13001;51.968;5.918;2024-03-29T07:55:40;10.20;99.90
22769;DHT22;13001;51.968;5.918;2024-03-29T07:58:10;10.20;99.90
22769;DHT22;13001;51.968;5.918;2024-03-29T08:00:41;10.20;99.90
22769;DHT22;13001;51.968;5.918;2024-03-29T08:03:11;10.20;99.90
22769;DHT22;13001;51.968;5.918;2024-03-29T08:05:38;10.10;99.90
22769;DHT22;13001;51.968;5.918;2024-03-29T08:08:07;10.10;99.90
22769;DHT22;13001;51.968;5.918;2024-03-29T08:10:34;10.10;99.90
22769;DHT22;13001;51.968;5.918;2024-03-29T08:13:02;10.20;99.90
22769;DHT22;13001;51.968;5.918;2024-03-29T08:15:29;10.20;99.90
22769;DHT22;13001;51.968;5.918;2024-03-29T08:17:56;10.30;99.90
22769;DHT22;13001;51.968;5.918;2024-03-29T08:20:24;10.30;99.90
22769;DHT22;13001;51.968;5.918;2024-03-29T08:22:53;10.40;99.90
22769;DHT22;13001;51.968;5.918;2024-03-29T08:25:22;10.40;99.90
22769;DHT22;13001;51.968;5.918;2024-03-29T08:27:49;10.50;99.90
22769;DHT22;13001;51.968;5.918;2024-03-29T08:30:17;10.50;99.90
22769;DHT22;13001;51.968;5.918;2024-03-29T08:32:44;10.50;99.90
22769;DHT22;13001;51.968;5.918;2024-03-29T08:35:12;10.60;99.90
22769;DHT22;13001;51.968;5.918;2024-03-29T08:37:39;10.70;99.90
22769;DHT22;13001;51.968;5.918;2024-03-29T08:40:07;10.70;99.90
22769;DHT22;13001;51.968;5.918;2024-03-29T08:42:35;10.80;99.90
22769;DHT22;13001;51.968;5.918;2024-03-29T08:45:04;10.90;99.90
22769;DHT22;13001;51.968;5.918;2024-03-29T08:47:34;11.00;99.90
22769;DHT22;13001;51.968;5.918;2024-03-29T08:50:02;11.10;99.90
22769;DHT22;13001;51.968;5.918;2024-03-29T08:52:30;11.30;99.90
22769;DHT22;13001;51.968;5.918;2024-03-29T08:55:01;11.40;99.90
22769;DHT22;13001;51.968;5.918;2024-03-29T08:57:28;11.70;99.90
22769;DHT22;13001;51.968;5.918;2024-03-29T08:59:57;12.00;99.90
22769;DHT22;13001;51.968;5.918;2024-03-29T09:02:27;12.20;99.50
22769;DHT22;13001;51.968;5.918;2024-03-29T09:04:54;12.70;99.20
22769;DHT22;13001;51.968;5.918;2024-03-29T09:07:21;13.60;98.10
22769;DHT22;13001;51.968;5.918;2024-03-29T09:09:50;14.10;96.10
22769;DHT22;13001;51.968;5.918;2024-03-29T09:12:18;14.80;95.20
22769;DHT22;13001;51.968;5.918;2024-03-29T09:14:46;15.60;93.10
22769;DHT22;13001;51.968;5.918;2024-03-29T09:17:13;15.60;91.90
22769;DHT22;13001;51.968;5.918;2024-03-29T09:19:41;15.70;91.90
22769;DHT22;13001;51.968;5.918;2024-03-29T09:22:08;15.90;91.00
22769;DHT22;13001;51.968;5.918;2024-03-29T09:24:36;15.90;90.70
22769;DHT22;13001;51.968;5.918;2024-03-29T09:27:04;16.20;90.20
22769;DHT22;13001;51.968;5.918;2024-03-29T09:29:32;16.40;88.20
22769;DHT22;13001;51.968;5.918;2024-03-29T09:32:00;16.50;88.20
22769;DHT22;13001;51.968;5.918;2024-03-29T09:34:30;17.10;88.10
22769;DHT22;13001;51.968;5.918;2024-03-29T09:36:58;18.40;85.60
22769;DHT22;13001;51.968;5.918;2024-03-29T09:39:25;19.60;80.70
22769;DHT22;13001;51.968;5.918;2024-03-29T09:41:52;20.60;78.90
22769;DHT22;13001;51.968;5.918;2024-03-29T09:44:20;21.90;76.30
22769;DHT22;13001;51.968;5.918;2024-03-29T09:46:48;22.80;73.60
22769;DHT22;13001;51.968;5.918;2024-03-29T09:49:16;23.40;71.20
22769;DHT22;13001;51.968;5.918;2024-03-29T09:51:43;23.40;69.30
22769;DHT22;13001;51.968;5.918;2024-03-29T09:54:11;23.10;70.10
22769;DHT22;13001;51.968;5.918;2024-03-29T09:56:39;22.70;70.10
22769;DHT22;13001;51.968;5.918;2024-03-29T09:59:06;22.00;71.10
22769;DHT22;13001;51.968;5.918;2024-03-29T10:01:34;22.00;72.50
22769;DHT22;13001;51.968;5.918;2024-03-29T10:04:02;21.50;72.00
22769;DHT22;13001;51.968;5.918;2024-03-29T10:06:30;20.90;73.20
22769;DHT22;13001;51.968;5.918;2024-03-29T10:08:59;20.30;74.60
22769;DHT22;13001;51.968;5.918;2024-03-29T10:11:26;19.70;75.70
22769;DHT22;13001;51.968;5.918;2024-03-29T10:13:53;19.20;76.80
22769;DHT22;13001;51.968;5.918;2024-03-29T10:16:20;18.70;77.60
22769;DHT22;13001;51.968;5.918;2024-03-29T10:18:49;18.40;78.80
22769;DHT22;13001;51.968;5.918;2024-03-29T10:21:15;18.20;79.30
22769;DHT22;13001;51.968;5.918;2024-03-29T10:23:42;18.10;80.00
22769;DHT22;13001;51.968;5.918;2024-03-29T10:26:11;18.00;80.20
22769;DHT22;13001;51.968;5.918;2024-03-29T10:28:39;18.00;80.50
22769;DHT22;13001;51.968;5.918;2024-03-29T10:31:05;18.10;80.70
22769;DHT22;13001;51.968;5.918;2024-03-29T10:33:33;18.00;80.10
22769;DHT22;13001;51.968;5.918;2024-03-29T10:36:00;18.00;80.30
22769;DHT22;13001;51.968;5.918;2024-03-29T10:38:29;18.20;80.30
22769;DHT22;13001;51.968;5.918;2024-03-29T10:40:56;18.40;81.20
22769;DHT22;13001;51.968;5.918;2024-03-29T10:43:22;18.70;79.80
22769;DHT22;13001;51.968;5.918;2024-03-29T10:45:50;18.90;79.30
22769;DHT22;13001;51.968;5.918;2024-03-29T10:48:19;19.20;79.00
22769;DHT22;13001;51.968;5.918;2024-03-29T10:50:48;19.40;78.40
22769;DHT22;13001;51.968;5.918;2024-03-29T10:53:17;19.60;77.50
22769;DHT22;13001;51.968;5.918;2024-03-29T10:55:43;20.00;77.30
22769;DHT22;13001;51.968;5.918;2024-03-29T10:58:11;20.60;75.90
22769;DHT22;13001;51.968;5.918;2024-03-29T11:00:47;21.20;74.70
22769;DHT22;13001;51.968;5.918;2024-03-29T11:03:20;21.50;73.40
22769;DHT22;13001;51.968;5.918;2024-03-29T11:05:48;21.50;72.80
22769;DHT22;13001;51.968;5.918;2024-03-29T11:08:22;21.50;72.70
22769;DHT22;13001;51.968;5.918;2024-03-29T11:10:51;21.50;72.30
22769;DHT22;13001;51.968;5.918;2024-03-29T11:15:53;21.30;72.70
22769;DHT22;13001;51.968;5.918;2024-03-29T11:18:21;21.50;72.90
22769;DHT22;13001;51.968;5.918;2024-03-29T11:20:51;22.10;71.80
22769;DHT22;13001;51.968;5.918;2024-03-29T11:23:21;22.50;70.00
22769;DHT22;13001;51.968;5.918;2024-03-29T11:25:54;22.40;69.10
22769;DHT22;13001;51.968;5.918;2024-03-29T11:28:25;22.10;69.60
22769;DHT22;13001;51.968;5.918;2024-03-29T11:30:58;21.60;69.70
22769;DHT22;13001;51.968;5.918;2024-03-29T11:36:23;20.40;68.30
22769;DHT22;13001;51.968;5.918;2024-03-29T11:38:52;19.90;69.70
22769;DHT22;13001;51.968;5.918;2024-03-29T11:41:24;19.50;70.90
22769;DHT22;13001;51.968;5.918;2024-03-29T11:43:56;19.30;71.60
22769;DHT22;13001;51.968;5.918;2024-03-29T11:46:25;19.40;71.80
22769;DHT22;13001;51.968;5.918;2024-03-29T11:48:53;19.40;71.80
22769;DHT22;13001;51.968;5.918;2024-03-29T11:51:21;19.50;71.80
22769;DHT22;13001;51.968;5.918;2024-03-29T11:53:51;19.70;72.30
22769;DHT22;13001;51.968;5.918;2024-03-29T11:56:19;20.00;71.30
22769;DHT22;13001;51.968;5.918;2024-03-29T11:58:48;20.10;70.10
22769;DHT22;13001;51.968;5.918;2024-03-29T12:01:16;20.10;69.10
22769;DHT22;13001;51.968;5.918;2024-03-29T12:03:44;20.00;68.70
22769;DHT22;13001;51.968;5.918;2024-03-29T12:06:14;19.90;69.50
22769;DHT22;13001;51.968;5.918;2024-03-29T12:08:43;19.90;69.40
22769;DHT22;13001;51.968;5.918;2024-03-29T12:11:11;20.00;68.80
22769;DHT22;13001;51.968;5.918;2024-03-29T12:13:39;19.90;67.70
22769;DHT22;13001;51.968;5.918;2024-03-29T12:16:08;19.90;68.20
22769;DHT22;13001;51.968;5.918;2024-03-29T12:18:35;20.00;68.10
22769;DHT22;13001;51.968;5.918;2024-03-29T12:21:03;20.00;68.00
22769;DHT22;13001;51.968;5.918;2024-03-29T12:23:30;20.00;67.00
22769;DHT22;13001;51.968;5.918;2024-03-29T12:25:58;19.90;66.20
22769;DHT22;13001;51.968;5.918;2024-03-29T12:28:27;19.80;67.00
22769;DHT22;13001;51.968;5.918;2024-03-29T12:30:56;19.80;67.30
22769;DHT22;13001;51.968;5.918;2024-03-29T12:33:24;19.90;67.10
22769;DHT22;13001;51.968;5.918;2024-03-29T12:35:53;19.80;66.70
22769;DHT22;13001;51.968;5.918;2024-03-29T12:38:22;19.90;66.90
22769;DHT22;13001;51.968;5.918;2024-03-29T12:40:51;19.90;66.70
22769;DHT22;13001;51.968;5.918;2024-03-29T12:43:23;20.20;68.50
22769;DHT22;13001;51.968;5.918;2024-03-29T12:45:52;20.50;67.10
22769;DHT22;13001;51.968;5.918;2024-03-29T12:48:21;20.50;65.60
22769;DHT22;13001;51.968;5.918;2024-03-29T12:50:52;20.30;64.80
22769;DHT22;13001;51.968;5.918;2024-03-29T12:53:20;20.00;65.30
22769;DHT22;13001;51.968;5.918;2024-03-29T12:55:50;19.70;65.20
22769;DHT22;13001;51.968;5.918;2024-03-29T12:58:18;19.40;65.60
22769;DHT22;13001;51.968;5.918;2024-03-29T13:00:47;19.40;67.10
22769;DHT22;13001;51.968;5.918;2024-03-29T13:03:16;19.40;66.80
22769;DHT22;13001;51.968;5.918;2024-03-29T13:05:44;19.40;66.80
22769;DHT22;13001;51.968;5.918;2024-03-29T13:08:12;19.50;67.10
22769;DHT22;13001;51.968;5.918;2024-03-29T13:10:43;19.50;67.00
22769;DHT22;13001;51.968;5.918;2024-03-29T13:13:11;19.60;66.90
22769;DHT22;13001;51.968;5.918;2024-03-29T13:15:39;19.70;67.20
22769;DHT22;13001;51.968;5.918;2024-03-29T13:18:08;19.80;66.40
22769;DHT22;13001;51.968;5.918;2024-03-29T13:20:37;19.90;66.30
22769;DHT22;13001;51.968;5.918;2024-03-29T13:23:09;20.00;65.40
22769;DHT22;13001;51.968;5.918;2024-03-29T13:25:38;20.00;64.90
22769;DHT22;13001;51.968;5.918;2024-03-29T13:28:06;19.90;65.00
22769;DHT22;13001;51.968;5.918;2024-03-29T13:30:36;19.80;64.80
22769;DHT22;13001;51.968;5.918;2024-03-29T13:33:05;19.80;65.20
22769;DHT22;13001;51.968;5.918;2024-03-29T13:35:32;19.80;64.40
22769;DHT22;13001;51.968;5.918;2024-03-29T13:38:01;19.70;64.80
22769;DHT22;13001;51.968;5.918;2024-03-29T13:40:28;19.60;66.40
22769;DHT22;13001;51.968;5.918;2024-03-29T13:42:58;19.60;66.50
22769;DHT22;13001;51.968;5.918;2024-03-29T13:45:25;19.60;66.00
22769;DHT22;13001;51.968;5.918;2024-03-29T13:47:54;19.60;65.60
22769;DHT22;13001;51.968;5.918;2024-03-29T13:50:22;19.60;65.10
22769;DHT22;13001;51.968;5.918;2024-03-29T13:52:49;19.60;65.30
22769;DHT22;13001;51.968;5.918;2024-03-29T13:55:18;19.60;65.80
22769;DHT22;13001;51.968;5.918;2024-03-29T13:57:45;19.70;65.00
22769;DHT22;13001;51.968;5.918;2024-03-29T14:00:13;19.70;64.40
22769;DHT22;13001;51.968;5.918;2024-03-29T14:02:42;19.70;64.60
22769;DHT22;13001;51.968;5.918;2024-03-29T14:05:10;19.60;64.80
22769;DHT22;13001;51.968;5.918;2024-03-29T14:07:38;19.60;64.50
22769;DHT22;13001;51.968;5.918;2024-03-29T14:10:06;19.50;64.40
22769;DHT22;13001;51.968;5.918;2024-03-29T14:12:34;19.60;64.60
22769;DHT22;13001;51.968;5.918;2024-03-29T14:15:02;19.60;65.10
22769;DHT22;13001;51.968;5.918;2024-03-29T14:17:32;19.60;64.30
22769;DHT22;13001;51.968;5.918;2024-03-29T14:19:59;19.60;63.90
22769;DHT22;13001;51.968;5.918;2024-03-29T14:22:27;19.50;63.50
22769;DHT22;13001;51.968;5.918;2024-03-29T14:24:56;19.40;63.80
22769;DHT22;13001;51.968;5.918;2024-03-29T14:27:23;19.30;64.20
22769;DHT22;13001;51.968;5.918;2024-03-29T14:29:51;19.30;65.40
22769;DHT22;13001;51.968;5.918;2024-03-29T14:32:21;19.30;65.20
22769;DHT22;13001;51.968;5.918;2024-03-29T14:34:50;19.40;64.20
22769;DHT22;13001;51.968;5.918;2024-03-29T14:37:19;19.40;63.80
22769;DHT22;13001;51.968;5.918;2024-03-29T14:39:46;19.40;63.80
22769;DHT22;13001;51.968;5.918;2024-03-29T14:42:15;19.40;63.70
22769;DHT22;13001;51.968;5.918;2024-03-29T14:44:45;19.30;63.50
22769;DHT22;13001;51.968;5.918;2024-03-29T14:47:13;19.20;64.40
22769;DHT22;13001;51.968;5.918;2024-03-29T14:49:42;19.10;64.30
22769;DHT22;13001;51.968;5.918;2024-03-29T14:52:09;19.10;65.00
22769;DHT22;13001;51.968;5.918;2024-03-29T14:54:37;19.10;64.80
22769;DHT22;13001;51.968;5.918;2024-03-29T14:57:04;19.20;64.40
22769;DHT22;13001;51.968;5.918;2024-03-29T14:59:32;19.10;64.70
22769;DHT22;13001;51.968;5.918;2024-03-29T15:02:00;19.20;65.10
22769;DHT22;13001;51.968;5.918;2024-03-29T15:04:28;19.30;65.00
22769;DHT22;13001;51.968;5.918;2024-03-29T15:06:56;19.40;64.60
22769;DHT22;13001;51.968;5.918;2024-03-29T15:09:23;19.40;64.20
22769;DHT22;13001;51.968;5.918;2024-03-29T15:11:51;19.30;63.90
22769;DHT22;13001;51.968;5.918;2024-03-29T15:14:20;19.30;64.00
22769;DHT22;13001;51.968;5.918;2024-03-29T15:16:47;19.30;64.70
22769;DHT22;13001;51.968;5.918;2024-03-29T15:19:15;19.30;64.70
22769;DHT22;13001;51.968;5.918;2024-03-29T15:21:43;19.50;65.10
22769;DHT22;13001;51.968;5.918;2024-03-29T15:24:10;19.50;64.50
22769;DHT22;13001;51.968;5.918;2024-03-29T15:26:38;19.60;63.90
22769;DHT22;13001;51.968;5.918;2024-03-29T15:29:05;19.60;64.00
22769;DHT22;13001;51.968;5.918;2024-03-29T15:31:39;19.50;64.30
22769;DHT22;13001;51.968;5.918;2024-03-29T15:34:08;19.40;64.70
22769;DHT22;13001;51.968;5.918;2024-03-29T15:36:36;19.30;64.10
22769;DHT22;13001;51.968;5.918;2024-03-29T15:39:04;19.10;64.40
22769;DHT22;13001;51.968;5.918;2024-03-29T15:41:37;18.90;65.50
22769;DHT22;13001;51.968;5.918;2024-03-29T15:44:07;18.70;65.20